Time;durP1;ratioP1;P1;durP2;ratioP2;P2;SDS_P1;SDS_P2;PMS_P1;PMS_P2;Temp;Humidity;BMP_temperature;BMP_pressure;BME280_temperature;BME280_humidity;BME280_pressure;Samples;Min_cycle;Max_cycle;Signal;HPM_P1;HPM_P2
2021/12/21 00:00:24;;;;;;;10.33;6.00;;;14.10;69.90;;;;;;5170901;28;20081;-30
2021/12/21 00:03:13;;;;;;;11.50;6.60;;;14.10;69.70;;;;;;5187956;28;20049;-29
2021/12/21 00:05:44;;;;;;;13.83;8.90;;;14.10;69.80;;;;;;5169988;28;20042;-30
2021/12/21 00:08:16;;;;;;;17.73;10.07;;;14.10;69.70;;;;;;5169647;28;20068;-30
2021/12/21 00:10:48;;;;;;;16.27;9.45;;;14.10;69.70;;;;;;5188074;28;20115;-30
2021/12/21 00:16:29;;;;;;;17.07;9.53;;;14.00;69.70;;;;;;5187901;28;20042;-30
2021/12/21 00:19:24;;;;;;;16.20;9.97;;;14.00;69.70;;;;;;5187580;28;20079;-30
2021/12/21 00:21:41;;;;;;;14.67;9.20;;;14.00;69.70;;;;;;5187107;28;20064;-29
2021/12/21 00:24:19;;;;;;;9.23;5.83;;;14.00;69.80;;;;;;5187978;28;20122;-30
2021/12/21 00:26:50;;;;;;;11.33;7.13;;;13.90;69.70;;;;;;5187514;28;20132;-30
2021/12/21 00:29:21;;;;;;;11.20;6.50;;;14.00;69.80;;;;;;5170190;28;20048;-30
2021/12/21 00:31:52;;;;;;;8.70;5.00;;;14.00;70.00;;;;;;5187490;28;20116;-30
2021/12/21 00:34:25;;;;;;;10.47;6.13;;;13.90;69.90;;;;;;5170133;28;20077;-30
2021/12/21 00:36:56;;;;;;;14.02;8.57;;;13.90;70.30;;;;;;5187289;28;20045;-29
2021/12/21 00:39:27;;;;;;;20.13;11.37;;;13.90;69.80;;;;;;5186043;28;20121;-31
2021/12/21 00:41:58;;;;;;;13.37;8.70;;;13.90;69.80;;;;;;5187287;28;20567;-31
2021/12/21 00:44:29;;;;;;;11.77;7.33;;;13.90;69.90;;;;;;5187318;28;20049;-32
2021/12/21 00:47:00;;;;;;;10.07;6.30;;;13.90;69.80;;;;;;5187396;28;20093;-32
2021/12/21 00:49:31;;;;;;;10.43;6.50;;;13.90;69.70;;;;;;5187260;28;20431;-29
2021/12/21 00:52:02;;;;;;;8.93;5.77;;;13.80;69.80;;;;;;5169677;28;20050;-30
2021/12/21 00:54:33;;;;;;;10.57;6.10;;;13.80;69.60;;;;;;5169593;28;20042;-32
2021/12/21 00:57:04;;;;;;;8.60;4.63;;;13.80;69.80;;;;;;5185766;28;20069;-30
2021/12/21 00:59:35;;;;;;;9.43;5.30;;;13.80;69.80;;;;;;5187320;28;20471;-32
2021/12/21 01:02:06;;;;;;;8.67;5.17;;;13.80;69.80;;;;;;5186619;28;20061;-30
2021/12/21 01:04:43;;;;;;;9.73;5.50;;;13.80;69.70;;;;;;5168839;28;20061;-32
2021/12/21 01:12:24;;;;;;;11.93;5.97;;;13.80;70.30;;;;;;5169665;28;20444;-30
2021/12/21 01:17:36;;;;;;;8.73;5.77;;;13.70;69.60;;;;;;5187495;28;20046;-31
2021/12/21 01:20:25;;;;;;;7.90;5.10;;;13.70;69.80;;;;;;5186972;28;20138;-31
2021/12/21 01:28:21;;;;;;;8.77;5.50;;;13.70;69.70;;;;;;5171131;28;20096;-29
2021/12/21 01:31:20;;;;;;;9.13;5.90;;;13.70;69.70;;;;;;5171389;28;20488;-31
2021/12/21 01:37:03;;;;;;;9.17;6.37;;;13.60;69.50;;;;;;5085089;29;20060;-32
2021/12/21 01:42:35;;;;;;;14.97;10.73;;;13.60;69.40;;;;;;5099384;29;20123;-29
2021/12/21 01:50:45;;;;;;;11.77;6.57;;;13.60;69.00;;;;;;5085009;29;20044;-30
2021/12/21 01:53:17;;;;;;;13.53;8.03;;;13.60;68.90;;;;;;5083761;29;20151;-31
2021/12/21 01:55:47;;;;;;;14.17;8.27;;;13.60;68.80;;;;;;5083353;29;20122;-29
2021/12/21 01:58:19;;;;;;;36.47;20.10;;;13.60;68.80;;;;;;5068054;29;20056;-29
2021/12/21 02:00:50;;;;;;;35.27;20.90;;;13.60;68.80;;;;;;5083031;29;20067;-31
2021/12/21 02:03:21;;;;;;;71.90;40.30;;;13.60;68.70;;;;;;5083544;29;20105;-29
2021/12/21 02:05:52;;;;;;;21.43;12.40;;;13.60;68.70;;;;;;5067303;29;20068;-31
2021/12/21 02:08:23;;;;;;;36.00;19.63;;;13.70;68.60;;;;;;5084319;29;20076;-29
2021/12/21 02:10:54;;;;;;;15.70;10.63;;;13.60;68.50;;;;;;5084774;29;20086;-31
2021/12/21 02:13:30;;;;;;;9.53;5.40;;;13.60;68.40;;;;;;5125266;28;20549;-29
2021/12/21 02:16:01;;;;;;;8.63;4.43;;;13.60;68.40;;;;;;5169147;28;20046;-30
2021/12/21 02:21:24;;;;;;;13.10;8.70;;;13.60;68.10;;;;;;5173509;28;20050;-30
2021/12/21 02:24:00;;;;;;;10.10;7.00;;;13.60;68.10;;;;;;5173593;28;20510;-29
2021/12/21 02:32:12;;;;;;;6.43;3.90;;;13.60;67.90;;;;;;5125908;29;20402;-30
2021/12/21 02:34:44;;;;;;;7.80;4.17;;;13.60;68.00;;;;;;5126907;29;20500;-31
2021/12/21 02:37:15;;;;;;;6.10;3.30;;;13.50;67.70;;;;;;5112091;29;20043;-29
2021/12/21 02:39:46;;;;;;;6.10;3.60;;;13.50;67.60;;;;;;5126707;29;20458;-30
2021/12/21 02:42:19;;;;;;;;;;;13.50;67.60;;;;;;5127602;29;20118;-32
2021/12/21 02:44:53;;;;;;;5.67;2.93;;;13.50;67.40;;;;;;5126879;29;19923;-30
2021/12/21 02:47:24;;;;;;;6.23;3.47;;;13.50;67.60;;;;;;5111433;29;20059;-31
2021/12/21 02:49:55;;;;;;;5.33;3.27;;;13.60;67.60;;;;;;5125884;29;20051;-31
2021/12/21 02:52:26;;;;;;;5.30;3.03;;;13.60;67.90;;;;;;5126291;29;20109;-31
2021/12/21 02:54:57;;;;;;;5.83;3.03;;;13.60;67.80;;;;;;5126124;29;20059;-29
2021/12/21 02:57:28;;;;;;;6.20;3.73;;;13.60;67.60;;;;;;5126168;29;20073;-29
2021/12/21 03:00:01;;;;;;;6.53;4.00;;;13.60;67.50;;;;;;5126662;29;20493;-30
2021/12/21 03:02:32;;;;;;;6.18;3.50;;;13.60;67.50;;;;;;5126596;29;20065;-30
2021/12/21 03:05:04;;;;;;;6.33;3.47;;;13.60;67.70;;;;;;5133067;28;20593;-32
2021/12/21 03:08:03;;;;;;;4.57;2.77;;;13.60;67.70;;;;;;5171648;28;20121;-29
2021/12/21 03:10:29;;;;;;;7.53;4.25;;;13.60;67.50;;;;;;5174560;28;20076;-31
2021/12/21 03:15:49;;;;;;;5.17;3.33;;;13.60;67.60;;;;;;5174397;28;20046;-29
2021/12/21 03:18:20;;;;;;;6.20;2.90;;;13.50;67.60;;;;;;5189272;28;20172;-32
2021/12/21 03:20:51;;;;;;;5.63;3.33;;;13.50;67.60;;;;;;5188993;28;20436;-29
2021/12/21 03:23:22;;;;;;;6.67;3.53;;;13.50;67.90;;;;;;5188532;28;20120;-32
2021/12/21 03:25:53;;;;;;;6.57;3.20;;;13.50;67.80;;;;;;5188138;28;20076;-32
2021/12/21 03:28:23;;;;;;;4.87;2.77;;;13.50;68.00;;;;;;5188429;28;20499;-29
2021/12/21 03:30:54;;;;;;;4.50;3.10;;;13.40;67.80;;;;;;5187848;28;20050;-30
2021/12/21 03:33:25;;;;;;;6.80;3.47;;;13.40;68.10;;;;;;5187666;28;20057;-29
2021/12/21 03:35:56;;;;;;;6.03;3.63;;;13.40;68.00;;;;;;5188606;28;20077;-32
2021/12/21 03:38:28;;;;;;;5.50;3.23;;;13.40;68.10;;;;;;5187568;28;20081;-30
2021/12/21 03:41:06;;;;;;;7.10;3.30;;;13.40;68.00;;;;;;5188034;28;20125;-31
2021/12/21 03:43:37;;;;;;;6.03;3.07;;;13.40;68.40;;;;;;5188245;28;20471;-30
2021/12/21 03:46:10;;;;;;;5.57;3.30;;;13.40;68.10;;;;;;5170914;28;20080;-29
2021/12/21 03:48:45;;;;;;;5.27;3.03;;;13.40;68.10;;;;;;5187943;28;20045;-30
2021/12/21 03:51:17;;;;;;;4.57;2.80;;;13.40;68.20;;;;;;5169092;28;20507;-32
2021/12/21 03:53:48;;;;;;;6.53;3.60;;;13.40;68.30;;;;;;5188214;28;20046;-31
2021/12/21 03:56:41;;;;;;;6.27;3.50;;;13.40;68.20;;;;;;5169673;28;20113;-32
2021/12/21 03:59:10;;;;;;;4.80;2.80;;;13.40;68.30;;;;;;5172652;28;20057;-30
2021/12/21 04:02:00;;;;;;;5.30;2.80;;;13.40;68.50;;;;;;5187314;28;20045;-30
2021/12/21 04:04:31;;;;;;;5.03;2.60;;;13.40;68.40;;;;;;5185492;28;20049;-30
2021/12/21 04:07:02;;;;;;;5.37;3.20;;;13.40;68.70;;;;;;5161176;28;20385;-29
2021/12/21 04:09:33;;;;;;;4.57;2.40;;;13.40;68.90;;;;;;5170547;28;20104;-29
2021/12/21 04:12:05;;;;;;;4.40;2.23;;;13.40;69.10;;;;;;5186097;28;20072;-31
2021/12/21 04:14:37;;;;;;;4.50;2.40;;;13.30;68.80;;;;;;5186270;28;20414;-30
2021/12/21 04:17:15;;;;;;;4.03;2.10;;;13.40;69.10;;;;;;5187076;28;20050;-30
2021/12/21 04:19:46;;;;;;;3.73;2.23;;;13.30;68.90;;;;;;5187317;28;20046;-30
2021/12/21 04:22:17;;;;;;;4.10;2.30;;;13.30;68.90;;;;;;5187375;28;20419;-30
2021/12/21 04:24:48;;;;;;;4.43;2.53;;;13.30;68.90;;;;;;5186516;28;20057;-29
2021/12/21 04:27:22;;;;;;;4.03;2.30;;;13.30;69.20;;;;;;5187848;28;20042;-29
2021/12/21 04:29:53;;;;;;;4.30;2.43;;;13.30;69.30;;;;;;5187796;28;20045;-29
2021/12/21 04:32:25;;;;;;;5.23;2.80;;;13.30;69.00;;;;;;5186583;28;20042;-28
2021/12/21 04:34:56;;;;;;;4.07;2.47;;;13.30;68.90;;;;;;5187593;28;20369;-29
2021/12/21 04:37:27;;;;;;;5.00;2.70;;;13.40;68.70;;;;;;5187618;28;20119;-29
2021/12/21 04:40:04;;;;;;;4.20;2.60;;;13.40;68.70;;;;;;5187550;28;20095;-29
2021/12/21 04:42:36;;;;;;;5.13;2.60;;;13.40;68.70;;;;;;5187535;28;20081;-31
2021/12/21 04:45:08;;;;;;;4.37;2.30;;;13.50;68.50;;;;;;5186168;28;20056;-30
2021/12/21 04:47:39;;;;;;;4.07;2.27;;;13.50;68.70;;;;;;5187399;28;20452;-29
2021/12/21 04:50:11;;;;;;;4.53;2.97;;;13.50;68.80;;;;;;5187211;28;20053;-31
2021/12/21 04:52:42;;;;;;;4.87;2.53;;;13.50;68.80;;;;;;5202482;28;20420;-29
2021/12/21 04:55:13;;;;;;;4.97;2.80;;;13.50;68.60;;;;;;5187431;28;20046;-30
2021/12/21 04:57:45;;;;;;;4.30;2.70;;;13.50;68.70;;;;;;5152564;28;20053;-30
2021/12/21 05:00:17;;;;;;;4.20;2.50;;;13.50;68.50;;;;;;5187165;28;20491;-30
2021/12/21 05:02:48;;;;;;;4.07;2.63;;;13.50;68.40;;;;;;5185708;28;20077;-31
2021/12/21 05:05:19;;;;;;;5.50;2.60;;;13.50;68.40;;;;;;5187068;28;20510;-30
2021/12/21 05:08:06;;;;;;;4.27;2.57;;;13.50;68.30;;;;;;5168864;28;20100;-30
2021/12/21 05:10:48;;;;;;;4.97;2.37;;;13.50;68.30;;;;;;5187100;28;20065;-29
2021/12/21 05:13:23;;;;;;;4.70;3.10;;;13.50;68.40;;;;;;5187272;28;20126;-29
2021/12/21 05:15:55;;;;;;;5.30;3.07;;;13.50;68.40;;;;;;5153186;28;20574;-30
2021/12/21 05:18:26;;;;;;;7.30;5.37;;;13.50;68.60;;;;;;5167972;28;20042;-31
2021/12/21 05:20:58;;;;;;;7.37;4.80;;;13.50;68.70;;;;;;5165397;28;20073;-29
2021/12/21 05:23:29;;;;;;;7.63;5.30;;;13.50;69.10;;;;;;5165430;28;20101;-31
2021/12/21 05:26:01;;;;;;;6.63;4.57;;;13.50;69.80;;;;;;5166496;28;20046;-29
2021/12/21 05:28:32;;;;;;;7.30;4.93;;;13.60;70.80;;;;;;5164189;28;20046;-31
2021/12/21 05:31:03;;;;;;;4.93;2.70;;;13.70;70.70;;;;;;5164368;28;20042;-32
2021/12/21 05:33:35;;;;;;;5.63;3.80;;;13.80;70.90;;;;;;5165213;28;20077;-29
2021/12/21 05:36:06;;;;;;;6.43;3.30;;;13.90;69.80;;;;;;5166292;28;20065;-29
2021/12/21 05:38:37;;;;;;;4.67;3.50;;;14.00;69.70;;;;;;5166370;28;20053;-31
2021/12/21 05:41:16;;;;;;;4.57;3.13;;;14.20;69.40;;;;;;5166493;28;20066;-29
2021/12/21 05:43:48;;;;;;;4.73;3.20;;;14.30;69.40;;;;;;5165877;28;20130;-29
2021/12/21 05:46:19;;;;;;;5.73;3.10;;;14.30;69.10;;;;;;5165515;28;20057;-29
2021/12/21 05:48:52;;;;;;;4.03;2.67;;;14.40;69.30;;;;;;5166395;28;20038;-30
2021/12/21 05:51:23;;;;;;;4.83;2.70;;;14.40;69.20;;;;;;5166096;28;20050;-32
2021/12/21 05:53:54;;;;;;;4.17;2.63;;;14.40;68.90;;;;;;5169369;28;20062;-29
2021/12/21 05:56:25;;;;;;;4.60;3.17;;;14.40;68.80;;;;;;5169986;28;20046;-29
2021/12/21 05:58:57;;;;;;;5.07;2.60;;;14.40;68.90;;;;;;5188697;28;20081;-28
2021/12/21 06:01:30;;;;;;;4.50;2.40;;;14.30;69.10;;;;;;5173229;28;20049;-30
2021/12/21 06:04:01;;;;;;;;;;;14.30;69.10;;;;;;5190530;28;20053;-31
2021/12/21 06:06:33;;;;;;;4.47;2.70;;;14.30;69.10;;;;;;5155766;28;20428;-31
2021/12/21 06:09:07;;;;;;;3.93;2.87;;;14.30;69.00;;;;;;5172133;28;20046;-30
2021/12/21 06:11:47;;;;;;;4.67;3.13;;;14.30;69.00;;;;;;5173169;28;20134;-30
2021/12/21 06:14:38;;;;;;;4.00;2.60;;;14.40;69.10;;;;;;5174242;28;20050;-30
2021/12/21 06:25:40;;;;;;;5.83;3.83;;;14.40;68.80;;;;;;5174693;28;20117;-31
2021/12/21 06:28:12;;;;;;;7.07;4.23;;;14.40;69.10;;;;;;5189888;28;20049;-30
2021/12/21 06:30:43;;;;;;;7.73;5.93;;;14.30;69.20;;;;;;5172229;28;20050;-29
2021/12/21 06:33:14;;;;;;;7.60;4.83;;;14.30;69.40;;;;;;5172864;28;20460;-30
2021/12/21 06:35:45;;;;;;;8.43;5.20;;;14.30;69.40;;;;;;5190009;28;20120;-31
2021/12/21 06:38:16;;;;;;;6.30;4.40;;;14.20;69.40;;;;;;5189965;28;20520;-29
2021/12/21 06:40:48;;;;;;;5.77;3.83;;;14.30;69.40;;;;;;5172398;28;20042;-30
2021/12/21 06:43:19;;;;;;;7.60;5.13;;;14.30;69.40;;;;;;5189627;28;20042;-29
2021/12/21 06:46:05;;;;;;;10.20;6.00;;;14.40;69.20;;;;;;5189628;28;20132;-30
2021/12/21 06:54:03;;;;;;;7.53;4.77;;;14.50;69.30;;;;;;5189644;28;20050;-30
2021/12/21 06:56:34;;;;;;;6.87;4.13;;;14.40;69.20;;;;;;5189206;28;20455;-30
2021/12/21 06:59:05;;;;;;;7.67;5.13;;;14.40;69.20;;;;;;5155748;28;20058;-30
2021/12/21 07:01:39;;;;;;;8.20;4.80;;;14.40;69.30;;;;;;5171949;28;20049;-31
2021/12/21 07:04:13;;;;;;;9.60;5.53;;;14.30;69.50;;;;;;5171309;28;20046;-30
2021/12/21 07:06:47;;;;;;;8.47;5.33;;;14.40;69.40;;;;;;5189511;28;20042;-30
2021/12/21 07:09:29;;;;;;;11.33;6.30;;;14.30;69.40;;;;;;5189177;28;20050;-30
2021/12/21 07:20:20;;;;;;;30.70;18.27;;;14.20;69.60;;;;;;5174448;28;20046;-31
2021/12/21 07:22:51;;;;;;;11.37;7.30;;;14.20;69.80;;;;;;5170923;28;20046;-30
2021/12/21 07:25:25;;;;;;;38.17;22.20;;;14.20;69.60;;;;;;5171511;28;20490;-30
2021/12/21 07:27:57;;;;;;;27.03;18.57;;;14.20;69.80;;;;;;5188920;28;20050;-32
2021/12/21 07:30:37;;;;;;;28.70;18.67;;;14.20;69.70;;;;;;5188762;28;20048;-31
2021/12/21 07:33:09;;;;;;;20.57;15.43;;;14.10;69.70;;;;;;5171574;28;20060;-31
2021/12/21 07:35:41;;;;;;;15.70;14.00;;;13.10;70.10;;;;;;5139127;28;20050;-29
2021/12/21 07:38:14;;;;;;;22.87;15.50;;;11.20;73.40;;;;;;5188528;28;20137;-29
2021/12/21 07:40:45;;;;;;;27.43;21.07;;;10.10;76.90;;;;;;5189132;28;20479;-28
2021/12/21 07:43:17;;;;;;;;;;;9.50;77.60;;;;;;5171501;28;20407;-28
2021/12/21 07:45:50;;;;;;;;;;;9.20;78.30;;;;;;5170451;28;19921;-29
2021/12/21 07:48:23;;;;;;;;;;;8.90;78.60;;;;;;5188689;28;20008;-28
2021/12/21 07:50:55;;;;;;;;;;;8.70;79.60;;;;;;5171041;28;20007;-31
2021/12/21 07:53:29;;;;;;;;;;;8.60;80.10;;;;;;5172201;28;19928;-28
2021/12/21 07:56:02;;;;;;;46.60;30.10;;;8.50;80.70;;;;;;5188417;28;19925;-30
2021/12/21 07:58:37;;;;;;;34.15;24.13;;;8.40;80.60;;;;;;5139444;28;20073;-31
2021/12/21 08:01:09;;;;;;;26.23;17.90;;;8.30;80.90;;;;;;5170170;28;20104;-31
2021/12/21 08:03:55;;;;;;;38.10;24.43;;;8.20;81.30;;;;;;5170503;28;20049;-31
2021/12/21 08:06:44;;;;;;;37.10;22.90;;;8.20;81.50;;;;;;5113335;29;20097;-31
2021/12/21 08:09:26;;;;;;;32.23;19.37;;;8.10;81.70;;;;;;5110772;29;20047;-31
2021/12/21 08:12:17;;;;;;;40.43;22.00;;;8.00;82.10;;;;;;5125625;29;20089;-30
2021/12/21 08:14:50;;;;;;;44.10;25.57;;;8.00;82.10;;;;;;5111780;28;20138;-29
2021/12/21 08:17:27;;;;;;;41.87;23.07;;;7.90;82.40;;;;;;5109886;29;20082;-28
2021/12/21 08:19:59;;;;;;;39.37;29.30;;;7.80;82.30;;;;;;5097051;28;20058;-31
2021/12/21 08:22:33;;;;;;;48.87;32.47;;;7.80;83.10;;;;;;5101910;29;20052;-31
2021/12/21 08:25:09;;;;;;;;;;;8.40;83.40;;;;;;5125622;29;20073;-31
2021/12/21 08:27:42;;;;;;;46.23;34.73;;;9.10;81.90;;;;;;5125478;29;19929;-32
2021/12/21 08:30:13;;;;;;;55.92;42.03;;;9.80;79.90;;;;;;5107101;29;25023;-29
2021/12/21 08:32:46;;;;;;;58.33;40.63;;;10.30;78.50;;;;;;5109222;29;20171;-31
2021/12/21 08:35:17;;;;;;;75.40;49.67;;;10.70;77.40;;;;;;5124820;29;20090;-29
2021/12/21 08:38:00;;;;;;;80.20;49.93;;;11.00;76.80;;;;;;5173202;28;20488;-32
2021/12/21 08:40:49;;;;;;;;;;;11.30;76.00;;;;;;5170604;28;20057;-30
2021/12/21 08:43:45;;;;;;;79.80;49.77;;;11.50;75.40;;;;;;5187879;28;19928;-30
2021/12/21 08:46:18;;;;;;;73.00;48.00;;;11.80;75.00;;;;;;5170281;28;20450;-32
2021/12/21 08:48:52;;;;;;;61.93;43.13;;;11.90;74.50;;;;;;5140538;28;20046;-29
2021/12/21 08:51:26;;;;;;;;;;;12.10;74.20;;;;;;5169700;28;20050;-31
2021/12/21 08:53:59;;;;;;;;;;;12.20;73.80;;;;;;5186550;28;20052;-32
2021/12/21 08:56:34;;;;;;;57.43;38.33;;;12.30;73.90;;;;;;5187277;28;20512;-30
2021/12/21 08:59:12;;;;;;;67.73;42.87;;;12.40;73.60;;;;;;5186338;28;20050;-32
2021/12/21 09:01:47;;;;;;;63.55;39.60;;;12.40;73.50;;;;;;5167796;28;20108;-32
2021/12/21 09:04:22;;;;;;;55.13;39.88;;;12.50;73.60;;;;;;5152077;28;20123;-32
2021/12/21 09:06:58;;;;;;;67.43;44.97;;;12.60;73.20;;;;;;5186872;28;20133;-29
2021/12/21 09:09:36;;;;;;;74.80;51.87;;;12.60;73.30;;;;;;5186806;28;20403;-31
2021/12/21 09:12:10;;;;;;;92.37;61.47;;;12.70;72.80;;;;;;5170750;28;20038;-32
2021/12/21 09:14:44;;;;;;;94.73;63.17;;;12.80;72.40;;;;;;5185635;28;20465;-30
2021/12/21 09:17:18;;;;;;;94.30;61.70;;;12.90;72.40;;;;;;5186398;28;20419;-31
2021/12/21 09:19:51;;;;;;;84.60;57.63;;;12.90;72.50;;;;;;5186912;28;20046;-31
2021/12/21 09:22:25;;;;;;;73.87;47.80;;;12.90;72.20;;;;;;5169306;28;20443;-31
2021/12/21 09:24:58;;;;;;;77.28;52.30;;;13.00;72.10;;;;;;5169264;28;20046;-30
2021/12/21 09:27:29;;;;;;;56.47;37.10;;;13.00;71.80;;;;;;5186011;28;20477;-32
2021/12/21 09:30:03;;;;;;;40.97;29.27;;;13.00;71.80;;;;;;5186794;28;20120;-32
2021/12/21 09:32:42;;;;;;;35.03;23.50;;;13.10;71.50;;;;;;5185555;28;20041;-31
2021/12/21 09:35:29;;;;;;;34.80;24.97;;;13.10;71.40;;;;;;5155024;28;20049;-29
2021/12/21 09:38:07;;;;;;;30.87;21.80;;;13.10;71.30;;;;;;5186839;28;20053;-29
2021/12/21 09:40:40;;;;;;;29.77;21.57;;;13.20;71.40;;;;;;5186598;28;20046;-30
2021/12/21 09:43:12;;;;;;;31.87;21.07;;;13.20;71.30;;;;;;5186547;28;20042;-30
2021/12/21 09:45:44;;;;;;;31.23;21.87;;;13.20;71.10;;;;;;5168659;28;20053;-30
2021/12/21 09:48:15;;;;;;;37.97;28.77;;;13.20;71.20;;;;;;5186416;28;20050;-30
2021/12/21 09:50:46;;;;;;;59.80;37.17;;;13.20;71.00;;;;;;5186668;28;20472;-29
2021/12/21 09:53:24;;;;;;;52.80;34.63;;;13.20;71.00;;;;;;5186515;28;20045;-32
2021/12/21 09:55:58;;;;;;;55.90;34.83;;;13.20;71.10;;;;;;5154134;28;20042;-31
2021/12/21 09:58:35;;;;;;;38.87;24.33;;;13.20;71.80;;;;;;5163237;28;20050;-29
2021/12/21 10:01:06;;;;;;;22.07;14.90;;;13.20;71.40;;;;;;5149131;28;20476;-33
2021/12/21 10:03:39;;;;;;;31.60;20.67;;;13.20;71.30;;;;;;5166113;28;20046;-32
2021/12/21 10:06:11;;;;;;;31.97;20.23;;;13.20;71.20;;;;;;5148418;28;20050;-31
2021/12/21 10:08:42;;;;;;;39.97;21.83;;;13.20;71.30;;;;;;5165559;28;20042;-31
2021/12/21 10:11:21;;;;;;;22.97;15.13;;;13.30;71.10;;;;;;5165760;28;20159;-30
2021/12/21 10:13:53;;;;;;;35.67;21.33;;;13.30;71.50;;;;;;5133024;28;20046;-31
2021/12/21 10:16:24;;;;;;;26.60;15.00;;;13.30;70.90;;;;;;5133291;28;20050;-32
2021/12/21 10:18:55;;;;;;;18.17;11.53;;;13.30;70.60;;;;;;5165536;28;20053;-30
2021/12/21 10:21:26;;;;;;;22.13;14.77;;;13.30;71.00;;;;;;5148775;28;20109;-31
2021/12/21 10:23:57;;;;;;;20.77;14.77;;;13.40;70.70;;;;;;5165981;28;20046;-30
2021/12/21 10:26:30;;;;;;;22.57;13.67;;;13.40;70.60;;;;;;5165838;28;20089;-31
2021/12/21 10:29:09;;;;;;;33.40;26.60;;;13.50;70.50;;;;;;5101773;28;20057;-31
2021/12/21 10:31:41;;;;;;;35.60;21.93;;;13.50;70.60;;;;;;5165914;28;20051;-31
2021/12/21 10:34:18;;;;;;;26.75;16.27;;;13.50;70.50;;;;;;5165982;28;20477;-31
2021/12/21 10:36:50;;;;;;;20.07;13.90;;;13.50;70.30;;;;;;5148723;28;20050;-31
2021/12/21 10:39:28;;;;;;;21.95;15.43;;;13.50;70.40;;;;;;5150804;28;20045;-31
2021/12/21 10:42:03;;;;;;;24.03;16.20;;;13.50;70.10;;;;;;5169114;28;20061;-31
2021/12/21 10:44:37;;;;;;;21.90;12.67;;;13.50;70.30;;;;;;5169039;28;20399;-31
2021/12/21 10:47:08;;;;;;;23.75;14.18;;;13.50;70.30;;;;;;5168788;28;20050;-31
2021/12/21 10:49:40;;;;;;;22.10;14.07;;;13.50;69.80;;;;;;5135781;28;20050;-31
2021/12/21 10:52:14;;;;;;;29.13;18.33;;;13.50;70.30;;;;;;5135869;28;20049;-33
2021/12/21 10:54:46;;;;;;;22.77;12.87;;;13.60;70.10;;;;;;5169577;28;20050;-33
2021/12/21 10:57:29;;;;;;;22.13;14.23;;;13.50;70.30;;;;;;5151899;28;20092;-30
2021/12/21 11:00:07;;;;;;;36.07;24.87;;;13.60;70.60;;;;;;5138546;28;20042;-33
2021/12/21 11:02:45;;;;;;;27.73;18.03;;;13.60;70.20;;;;;;5169126;28;20396;-31
2021/12/21 11:05:18;;;;;;;22.77;15.20;;;13.60;70.10;;;;;;5152389;28;20058;-33
2021/12/21 11:08:16;;;;;;;;;;;13.60;70.80;;;;;;5152684;28;20093;-33
2021/12/21 11:10:51;;;;;;;24.77;14.43;;;13.70;70.40;;;;;;5156026;28;19922;-33
2021/12/21 11:13:24;;;;;;;18.93;12.33;;;13.60;70.60;;;;;;5152099;28;20381;-31
2021/12/21 11:15:57;;;;;;;24.13;15.13;;;13.70;70.30;;;;;;5169018;28;20109;-33
2021/12/21 11:18:28;;;;;;;21.63;14.00;;;13.70;71.00;;;;;;5151817;28;20073;-32
2021/12/21 11:21:00;;;;;;;23.70;14.87;;;13.70;71.20;;;;;;5168613;28;20116;-31
2021/12/21 11:23:30;;;;;;;26.03;17.03;;;13.80;70.80;;;;;;5135148;28;20046;-33
2021/12/21 11:26:02;;;;;;;25.93;17.53;;;13.80;70.70;;;;;;5135398;28;20396;-30
2021/12/21 11:28:36;;;;;;;21.40;15.83;;;13.80;71.20;;;;;;5168445;28;20046;-31
2021/12/21 11:31:08;;;;;;;20.30;13.73;;;13.80;71.50;;;;;;5151635;28;20381;-33
2021/12/21 11:33:44;;;;;;;20.27;13.93;;;13.70;71.20;;;;;;5151471;28;20452;-32
2021/12/21 11:39:06;;;;;;;30.73;18.50;;;13.70;71.30;;;;;;5168304;28;20125;-30
2021/12/21 11:41:37;;;;;;;20.27;12.93;;;13.80;71.70;;;;;;5168511;28;20148;-32
2021/12/21 11:44:30;;;;;;;17.07;11.90;;;13.80;71.00;;;;;;5166999;28;20393;-32
2021/12/21 11:47:01;;;;;;;21.60;14.83;;;13.90;71.00;;;;;;5168881;28;20065;-33
2021/12/21 11:49:34;;;;;;;38.50;30.00;;;13.80;71.10;;;;;;5150697;28;20042;-32
2021/12/21 11:52:07;;;;;;;30.67;24.00;;;13.80;71.20;;;;;;5150564;28;20042;-32
2021/12/21 11:54:47;;;;;;;36.58;22.27;;;13.80;71.00;;;;;;5168693;28;20039;-30
2021/12/21 11:57:19;;;;;;;34.47;21.40;;;13.90;71.00;;;;;;5155465;28;20054;-33
2021/12/21 11:59:50;;;;;;;24.17;15.70;;;13.80;71.30;;;;;;5187049;28;20046;-31
2021/12/21 12:02:32;;;;;;;25.87;15.70;;;13.80;71.10;;;;;;5187971;28;20099;-31
2021/12/21 12:05:34;;;;;;;41.10;22.27;;;13.80;71.10;;;;;;5187720;28;20072;-30
2021/12/21 12:08:08;;;;;;;35.63;19.57;;;13.70;71.70;;;;;;5175378;28;20133;-31
2021/12/21 12:10:47;;;;;;;34.23;19.40;;;13.70;71.50;;;;;;5187884;28;20076;-32
2021/12/21 12:13:25;;;;;;;31.70;19.40;;;13.70;71.80;;;;;;5170619;28;20100;-33
2021/12/21 12:16:14;;;;;;;35.67;20.63;;;13.70;71.90;;;;;;5187665;28;20420;-31
2021/12/21 12:18:49;;;;;;;18.95;12.38;;;13.70;71.90;;;;;;5171436;28;20121;-31
2021/12/21 12:21:22;;;;;;;16.63;12.07;;;13.60;71.90;;;;;;5187785;28;20461;-32
2021/12/21 12:24:00;;;;;;;30.58;18.60;;;13.60;71.50;;;;;;5153813;28;20080;-31
2021/12/21 12:26:39;;;;;;;26.93;17.30;;;13.60;71.30;;;;;;5171237;28;20121;-32
2021/12/21 12:29:25;;;;;;;31.23;18.70;;;13.60;71.50;;;;;;5109075;29;20142;-30
2021/12/21 12:32:04;;;;;;;32.07;19.23;;;13.60;71.60;;;;;;5124767;29;20545;-32
2021/12/21 12:34:36;;;;;;;49.47;34.63;;;13.60;71.60;;;;;;5124718;29;20062;-32
2021/12/21 12:37:21;;;;;;;50.33;36.07;;;13.50;71.60;;;;;;5124801;29;20062;-31
2021/12/21 12:39:54;;;;;;;42.23;28.00;;;13.60;71.60;;;;;;5123986;29;20055;-31
2021/12/21 12:42:29;;;;;;;36.97;25.20;;;13.60;71.60;;;;;;5124706;29;20047;-31
2021/12/21 12:45:19;;;;;;;46.70;31.80;;;13.60;71.60;;;;;;5122511;28;20047;-32
2021/12/21 12:47:53;;;;;;;61.80;39.57;;;13.60;71.70;;;;;;5128886;28;20105;-31
2021/12/21 12:50:38;;;;;;;;;;;;;;;;;;;;;
2021/12/21 12:53:14;;;;;;;79.97;50.40;;;13.60;71.60;;;;;;5144299;28;20137;-32
2021/12/21 12:55:52;;;;;;;111.97;71.20;;;13.50;71.60;;;;;;5144905;28;20109;-31
2021/12/21 12:58:28;;;;;;;139.20;80.00;;;13.50;71.60;;;;;;5144387;28;20082;-30
2021/12/21 13:01:18;;;;;;;98.97;56.70;;;13.50;71.60;;;;;;5144418;28;20059;-31
2021/12/21 13:03:50;;;;;;;98.73;55.03;;;13.50;71.40;;;;;;5128114;28;20047;-31
2021/12/21 13:06:28;;;;;;;72.47;45.33;;;13.40;71.30;;;;;;5162383;28;20054;-31
2021/12/21 13:08:59;;;;;;;57.47;36.43;;;13.40;71.50;;;;;;5185854;28;20042;-31
2021/12/21 13:11:31;;;;;;;57.33;37.97;;;13.40;71.20;;;;;;5164081;28;20384;-31
2021/12/21 13:14:02;;;;;;;70.20;44.40;;;13.40;70.80;;;;;;5189521;28;20056;-31
2021/12/21 13:16:35;;;;;;;52.60;34.40;;;13.50;71.00;;;;;;5186778;28;20161;-30
2021/12/21 13:19:09;;;;;;;62.33;39.73;;;13.60;71.30;;;;;;5186128;28;20042;-31
2021/12/21 13:22:02;;;;;;;51.63;32.47;;;13.60;70.70;;;;;;5185936;28;20482;-31
2021/12/21 13:24:43;;;;;;;57.67;36.93;;;13.60;70.40;;;;;;5186929;28;20377;-31
2021/12/21 13:27:14;;;;;;;56.33;35.37;;;13.60;70.40;;;;;;5187022;28;20065;-32
2021/12/21 13:29:45;;;;;;;66.07;42.53;;;13.60;70.30;;;;;;5186875;28;20054;-31
2021/12/21 13:32:20;;;;;;;67.40;43.40;;;13.60;70.40;;;;;;5186795;28;20054;-31
2021/12/21 13:34:53;;;;;;;54.27;37.40;;;13.60;70.50;;;;;;5186846;28;20050;-32
2021/12/21 13:37:27;;;;;;;57.87;42.77;;;13.60;70.40;;;;;;5185502;28;20052;-32
2021/12/21 13:40:00;;;;;;;56.53;42.27;;;13.60;70.50;;;;;;5186867;28;20407;-31
2021/12/21 13:42:32;;;;;;;55.37;43.27;;;13.60;70.60;;;;;;5172746;28;20480;-30
2021/12/21 13:45:05;;;;;;;50.03;38.03;;;13.60;70.70;;;;;;5186406;28;20077;-30
2021/12/21 13:47:42;;;;;;;45.25;33.10;;;13.60;70.80;;;;;;5169183;28;20121;-31
2021/12/21 13:50:19;;;;;;;29.87;20.17;;;13.60;70.80;;;;;;5169666;28;20125;-31
2021/12/21 13:52:58;;;;;;;34.87;22.50;;;13.70;70.80;;;;;;5186006;28;20041;-31
2021/12/21 13:55:30;;;;;;;34.37;23.47;;;13.80;70.60;;;;;;5186104;28;20038;-30
2021/12/21 13:58:07;;;;;;;44.05;29.77;;;13.90;70.50;;;;;;5186374;28;20049;-31
2021/12/21 14:00:46;;;;;;;47.50;31.83;;;14.00;70.30;;;;;;5168953;28;20050;-32
2021/12/21 14:03:27;;;;;;;63.57;41.27;;;14.00;70.10;;;;;;5168174;28;20124;-30
2021/12/21 14:06:08;;;;;;;65.93;43.43;;;14.00;70.00;;;;;;5186253;28;20402;-31
2021/12/21 14:08:43;;;;;;;160.97;98.13;;;14.10;69.90;;;;;;5186039;28;20046;-31
2021/12/21 14:11:14;;;;;;;138.07;88.07;;;14.10;70.00;;;;;;5186263;28;20484;-30
2021/12/21 14:13:46;;;;;;;117.33;83.40;;;14.00;69.90;;;;;;5187544;28;20554;-31
2021/12/21 14:16:18;;;;;;;77.97;53.10;;;14.00;69.90;;;;;;5156209;28;20056;-31
2021/12/21 14:18:53;;;;;;;52.73;41.13;;;14.00;69.80;;;;;;5189932;28;20559;-31
2021/12/21 14:21:29;;;;;;;64.50;46.43;;;14.00;69.70;;;;;;5173063;28;20045;-31